Home   Weather   Milan   Past weeks
Flag for USA

Past Weather in Milan, Missouri, USA — Yesterday and Last 2 Weeks

Currently: 21 °F. Clear. (Weather station: Fair Field, USA). See more current weather

Past Weather in Milan — Graph

°F

Milan Temperature Yesterday

Maximum temperature yesterday: 57 °F (at 2:15 pm)
Minimum temperature yesterday: 28 °F (at 11:55 pm)
Average temperature yesterday: 44 °F

High & Low Weather Summary for the Past Weeks

 TemperatureHumidityPressure
High61 °F (Nov 29, 1:55 pm)100% (Nov 22, 5:15 am)30.46 "Hg (Nov 22, 5:15 am)
Low12 °F (Nov 20, 12:55 am)20% (Nov 21, 12:55 pm)29.38 "Hg (Nov 29, 12:55 pm)
Average35 °F68%30.05 "Hg
* Reported Nov 18 1:15 am — Dec 3 1:55 am, Milan. Weather by CustomWeather, © 2022

Note: Actual official high and low records may vary slightly from our data, if they occured in-between our weather recording intervals... More about our weather records

Milan Weather History for the Previous 24 Hours

Scroll right to see more
 ConditionsComfort  
Time TempWeatherWind HumidityBarometerVisibility
1:55 am
Sat, Dec 3
21 °FPassing clouds.23 mph68%30.21 "Hg10 mi
1:35 am23 °FPassing clouds.29 mph68%30.19 "Hg10 mi
1:15 am23 °FPassing clouds.26 mph68%30.16 "Hg10 mi
12:55 am25 °FPartly cloudy.29 mph63%30.13 "Hg10 mi
12:15 am28 °FOvercast.31 mph64%30.08 "Hg10 mi
11:55 pm
Fri, Dec 2
28 °FOvercast.24 mph64%30.05 "Hg10 mi
11:35 pm30 °FMostly cloudy.26 mph69%30.05 "Hg10 mi
11:15 pm32 °FOvercast.24 mph69%30.03 "Hg10 mi
10:55 pm32 °FOvercast.28 mph69%29.99 "Hg10 mi
10:35 pm34 °FOvercast.30 mph65%29.99 "Hg10 mi
10:15 pm36 °FChilly.30 mph70%29.94 "Hg10 mi
9:55 pm39 °FChilly.29 mph70%29.89 "Hg10 mi
9:35 pm41 °FQuite cool.25 mph66%29.87 "Hg10 mi
9:15 pm43 °FQuite cool.25 mph61%29.84 "Hg10 mi
8:55 pm48 °FCool.29 mph58%29.79 "Hg10 mi
8:15 pm52 °FCool.16 mph72%29.74 "Hg10 mi
7:55 pm52 °FCool.10 mph72%29.71 "Hg10 mi
7:35 pm52 °FCool.9 mph72%29.69 "Hg10 mi
7:15 pm52 °FCool.10 mph72%29.69 "Hg10 mi
6:55 pm54 °FCool.9 mph67%29.68 "Hg10 mi
5:35 pm54 °FCool.10 mph67%29.65 "Hg10 mi
4:55 pm55 °FRefreshingly cool.10 mph59%29.65 "Hg10 mi
4:35 pm55 °FRefreshingly cool.12 mph59%29.64 "Hg10 mi
4:15 pm55 °FRefreshingly cool.13 mph59%29.62 "Hg10 mi
3:55 pm55 °FRefreshingly cool.15 mph59%29.60 "Hg10 mi
3:35 pm55 °FRefreshingly cool.16 mph59%29.58 "Hg10 mi
3:15 pm57 °FRefreshingly cool.24 mph55%29.58 "Hg10 mi
2:55 pm57 °FRefreshingly cool.28 mph55%29.58 "Hg10 mi
2:35 pm57 °FRefreshingly cool.16 mph55%29.59 "Hg10 mi
2:15 pm57 °FRefreshingly cool.20 mph55%29.59 "Hg10 mi
1:55 pm55 °FRefreshingly cool.16 mph55%29.61 "Hg10 mi
1:35 pm55 °FRefreshingly cool.25 mph55%29.60 "Hg10 mi
1:15 pm55 °FRefreshingly cool.20 mph55%29.61 "Hg10 mi
12:55 pm54 °FCool.22 mph54%29.63 "Hg10 mi
12:15 pm52 °FCool.14 mph50%29.67 "Hg10 mi
11:55 am50 °FSunny.13 mph50%29.68 "Hg10 mi
11:15 am48 °FSunny.15 mph50%29.70 "Hg10 mi
10:35 am46 °FCool.17 mph50%29.72 "Hg10 mi
10:15 am46 °FCool.17 mph50%29.74 "Hg10 mi
9:55 am46 °FCool.15 mph46%29.75 "Hg10 mi
9:35 am45 °FQuite cool.14 mph46%29.77 "Hg10 mi
9:15 am45 °FQuite cool.16 mph46%29.77 "Hg10 mi
8:55 am43 °FSunny.15 mph46%29.77 "Hg10 mi
8:35 am41 °FQuite cool.15 mph45%29.77 "Hg10 mi
7:55 am37 °FChilly.14 mph48%29.80 "Hg10 mi
7:35 am37 °FChilly.13 mph48%29.81 "Hg10 mi
6:55 am36 °FClear.12 mph52%29.82 "Hg10 mi
6:35 am34 °FChilly.10 mph56%29.82 "Hg10 mi
6:15 am36 °FChilly.12 mph52%29.84 "Hg10 mi
5:55 am36 °FChilly.13 mph52%29.85 "Hg10 mi
5:35 am37 °FChilly.14 mph45%29.86 "Hg10 mi
4:55 am36 °FClear.12 mph48%29.87 "Hg10 mi
4:35 am36 °FClear.13 mph48%29.88 "Hg10 mi
3:55 am36 °FChilly.12 mph48%29.90 "Hg10 mi
3:35 am37 °FChilly.12 mph41%29.92 "Hg10 mi
3:15 am37 °FChilly.14 mph41%29.93 "Hg10 mi
Weather by CustomWeather, © 2022

See weather overview